createdAt,value
2023-01-22T00:01:17.102Z,9.63
2023-01-22T00:03:46.520Z,10.33
2023-01-22T00:06:14.004Z,9.70
2023-01-22T00:08:40.956Z,10.77
2023-01-22T00:11:07.735Z,9.03
2023-01-22T00:13:43.133Z,9.47
2023-01-22T00:16:14.903Z,9.63
2023-01-22T00:18:42.483Z,10.70
2023-01-22T00:21:11.569Z,10.00
2023-01-22T00:23:38.974Z,9.93
2023-01-22T00:26:15.579Z,9.60
2023-01-22T00:28:45.341Z,10.33
2023-01-22T00:31:13.672Z,10.20
2023-01-22T00:33:41.924Z,10.10
2023-01-22T00:36:15.905Z,10.17
2023-01-22T00:38:42.988Z,8.73
2023-01-22T00:41:12.656Z,9.70
2023-01-22T00:43:40.492Z,9.53
2023-01-22T00:46:12.327Z,9.83
2023-01-22T00:48:40.139Z,9.40
2023-01-22T00:51:09.551Z,9.90
2023-01-22T00:53:41.313Z,9.83
2023-01-22T00:56:08.600Z,9.67
2023-01-22T00:58:35.481Z,9.23
2023-01-22T01:01:03.463Z,10.10
2023-01-22T01:03:31.811Z,9.80
2023-01-22T01:06:15.064Z,9.90
2023-01-22T01:08:43.867Z,9.97
2023-01-22T01:11:23.506Z,9.67
2023-01-22T01:13:52.693Z,8.87
2023-01-22T01:16:30.404Z,8.80
2023-01-22T01:19:07.047Z,9.63
2023-01-22T01:21:34.202Z,10.07
2023-01-22T01:24:01.221Z,8.63
2023-01-22T01:26:28.673Z,8.50
2023-01-22T01:28:58.472Z,9.03
2023-01-22T01:31:28.101Z,8.90
2023-01-22T01:33:56.604Z,8.83
2023-01-22T01:36:46.777Z,8.97
2023-01-22T01:39:13.636Z,8.90
2023-01-22T01:41:40.538Z,8.33
2023-01-22T01:44:31.370Z,8.13
2023-01-22T01:47:07.212Z,8.53
2023-01-22T01:49:46.411Z,7.70
2023-01-22T01:52:16.311Z,8.37
2023-01-22T01:54:50.488Z,8.10
2023-01-22T01:57:24.164Z,7.67
2023-01-22T01:59:52.691Z,7.67
2023-01-22T02:02:22.692Z,7.17
2023-01-22T02:04:53.269Z,7.83
2023-01-22T02:07:20.787Z,7.47
2023-01-22T02:09:47.685Z,8.53
2023-01-22T02:12:14.548Z,6.83
2023-01-22T02:14:46.184Z,7.27
2023-01-22T02:17:22.834Z,7.20
2023-01-22T02:19:49.604Z,7.97
2023-01-22T02:22:28.986Z,7.57
2023-01-22T02:24:55.919Z,6.77
2023-01-22T02:27:23.025Z,8.43
2023-01-22T02:29:51.462Z,6.40
2023-01-22T02:32:18.402Z,6.87
2023-01-22T02:34:45.446Z,7.03
2023-01-22T02:37:12.377Z,6.77
2023-01-22T02:39:39.278Z,7.23
2023-01-22T02:42:07.660Z,7.60
2023-01-22T02:44:34.910Z,7.50
2023-01-22T02:47:01.831Z,7.13
2023-01-22T02:49:28.599Z,6.67
2023-01-22T02:51:55.543Z,7.50
2023-01-22T02:54:22.400Z,6.87
2023-01-22T02:56:49.197Z,6.87
2023-01-22T02:59:15.954Z,6.53
2023-01-22T03:01:42.789Z,7.17
2023-01-22T03:04:12.152Z,8.13
2023-01-22T03:06:47.367Z,6.33
2023-01-22T03:09:17.759Z,6.90
2023-01-22T03:11:46.995Z,7.10
2023-01-22T03:14:33.178Z,6.57
2023-01-22T03:17:19.129Z,6.57
2023-01-22T03:20:04.606Z,6.47
2023-01-22T03:22:32.467Z,6.73
2023-01-22T03:25:01.282Z,6.63
2023-01-22T03:27:31.007Z,6.67
2023-01-22T03:29:58.265Z,6.80
2023-01-22T03:32:25.168Z,7.20
2023-01-22T03:34:53.717Z,6.97
2023-01-22T03:37:28.080Z,6.80
2023-01-22T03:39:54.818Z,6.47
2023-01-22T03:42:24.672Z,6.47
2023-01-22T03:44:52.418Z,6.03
2023-01-22T03:47:19.191Z,5.83
2023-01-22T03:49:45.944Z,6.23
2023-01-22T03:52:12.710Z,6.67
2023-01-22T03:54:39.442Z,6.80
2023-01-22T03:57:06.222Z,5.97
2023-01-22T03:59:33.064Z,6.37
2023-01-22T04:01:59.856Z,6.53
2023-01-22T04:04:27.419Z,6.53
2023-01-22T04:06:54.122Z,7.03
2023-01-22T04:09:20.882Z,7.77
2023-01-22T04:11:47.613Z,6.37
2023-01-22T04:14:14.401Z,5.83
2023-01-22T04:16:41.178Z,6.50
2023-01-22T04:19:09.986Z,6.33
2023-01-22T04:21:36.739Z,6.60
2023-01-22T04:24:03.696Z,7.30
2023-01-22T04:26:30.434Z,6.77
2023-01-22T04:28:57.309Z,7.27
2023-01-22T04:31:24.190Z,7.00
2023-01-22T04:33:51.083Z,7.43
2023-01-22T04:36:18.096Z,7.07
2023-01-22T04:38:45.239Z,7.03
2023-01-22T04:41:11.980Z,6.67
2023-01-22T04:43:38.706Z,6.10
2023-01-22T04:46:05.831Z,6.50
2023-01-22T04:48:32.632Z,6.77
2023-01-22T04:50:59.444Z,6.37
2023-01-22T04:53:26.276Z,6.23
2023-01-22T04:55:53.037Z,6.93
2023-01-22T04:58:19.763Z,6.63
2023-01-22T05:00:46.513Z,5.97
2023-01-22T05:03:13.216Z,6.20
2023-01-22T05:05:39.931Z,6.30
2023-01-22T05:08:07.022Z,5.90
2023-01-22T05:10:33.955Z,6.23
2023-01-22T05:13:05.205Z,6.50
2023-01-22T05:15:32.439Z,6.40
2023-01-22T05:17:59.653Z,5.57
2023-01-22T05:20:27.025Z,6.20
2023-01-22T05:22:53.786Z,7.00
2023-01-22T05:25:20.556Z,7.13
2023-01-22T05:27:47.272Z,6.07
2023-01-22T05:30:14.324Z,7.13
2023-01-22T05:32:41.249Z,7.27
2023-01-22T05:35:08.486Z,6.70
2023-01-22T05:37:35.238Z,6.70
2023-01-22T05:40:05.243Z,6.43
2023-01-22T05:42:32.357Z,7.27
2023-01-22T05:44:59.193Z,6.93
2023-01-22T05:47:25.982Z,6.73
2023-01-22T05:49:52.787Z,6.17
2023-01-22T05:52:20.841Z,6.53
2023-01-22T05:54:47.622Z,6.57
2023-01-22T05:57:14.456Z,6.73
2023-01-22T05:59:41.309Z,7.23
2023-01-22T06:02:08.144Z,8.23
2023-01-22T06:04:34.965Z,8.73
2023-01-22T06:07:01.777Z,8.43
2023-01-22T06:09:28.553Z,7.87
2023-01-22T06:11:55.528Z,7.97
2023-01-22T06:14:22.362Z,6.97
2023-01-22T06:16:49.257Z,7.70
2023-01-22T06:19:16.080Z,7.13
2023-01-22T06:21:43.673Z,7.00
2023-01-22T06:24:11.073Z,6.90
2023-01-22T06:26:38.159Z,7.27
2023-01-22T06:29:05.253Z,7.23
2023-01-22T06:31:32.553Z,6.90
2023-01-22T06:33:59.392Z,7.07
2023-01-22T06:36:26.423Z,6.77
2023-01-22T06:38:53.451Z,6.77
2023-01-22T06:41:20.624Z,7.90
2023-01-22T06:43:47.437Z,7.20
2023-01-22T06:46:14.564Z,6.73
2023-01-22T06:48:43.599Z,6.93
2023-01-22T06:51:13.451Z,6.73
2023-01-22T06:53:40.607Z,6.80
2023-01-22T06:56:09.107Z,5.87
2023-01-22T06:58:35.819Z,6.33
2023-01-22T07:01:05.312Z,6.53
2023-01-22T07:03:32.220Z,6.50
2023-01-22T07:06:02.839Z,6.17
2023-01-22T07:08:32.596Z,6.87
2023-01-22T07:11:00.664Z,6.13
2023-01-22T07:13:27.505Z,6.30
2023-01-22T07:15:54.523Z,6.17
2023-01-22T07:18:24.163Z,6.10
2023-01-22T07:20:51.616Z,6.07
2023-01-22T07:23:18.614Z,5.73
2023-01-22T07:25:46.471Z,6.00
2023-01-22T07:28:15.276Z,6.37
2023-01-22T07:30:46.673Z,5.63
2023-01-22T07:33:14.845Z,6.60
2023-01-22T07:35:42.118Z,5.83
2023-01-22T07:38:09.541Z,6.23
2023-01-22T07:40:36.543Z,5.77
2023-01-22T07:43:07.707Z,5.73
2023-01-22T07:45:35.456Z,6.53
2023-01-22T07:48:03.960Z,6.80
2023-01-22T07:50:31.888Z,6.33
2023-01-22T07:53:00.620Z,6.10
2023-01-22T07:55:27.953Z,6.03
2023-01-22T07:58:04.535Z,5.70
2023-01-22T08:00:35.269Z,6.30
2023-01-22T08:03:05.088Z,6.10
2023-01-22T08:05:31.973Z,5.80
2023-01-22T08:07:59.158Z,5.63
2023-01-22T08:10:26.062Z,5.40
2023-01-22T08:12:52.799Z,6.30
2023-01-22T08:15:19.613Z,5.57
2023-01-22T08:17:52.822Z,6.00
2023-01-22T08:20:19.931Z,5.27
2023-01-22T08:22:47.120Z,4.77
2023-01-22T08:25:14.040Z,7.00
2023-01-22T08:27:41.961Z,5.90
2023-01-22T08:30:11.370Z,5.40
2023-01-22T08:32:41.269Z,5.73
2023-01-22T08:35:09.555Z,5.23
2023-01-22T08:37:37.349Z,5.73
2023-01-22T08:40:06.503Z,6.03
2023-01-22T08:42:33.609Z,5.50
2023-01-22T08:45:00.397Z,5.43
2023-01-22T08:47:27.398Z,5.60
2023-01-22T08:49:54.185Z,4.77
2023-01-22T08:52:20.933Z,5.40
2023-01-22T08:54:48.704Z,5.83
2023-01-22T08:57:16.507Z,4.97
2023-01-22T08:59:52.534Z,5.10
2023-01-22T09:02:28.905Z,5.10
2023-01-22T09:04:55.866Z,5.20
2023-01-22T09:07:22.930Z,6.60
2023-01-22T09:09:50.253Z,6.40
2023-01-22T09:12:17.019Z,5.20
2023-01-22T09:14:43.784Z,5.20
2023-01-22T09:17:10.557Z,5.33
2023-01-22T09:19:37.327Z,5.27
2023-01-22T09:22:06.576Z,4.77
2023-01-22T09:24:33.750Z,4.80
2023-01-22T09:27:00.525Z,4.17
2023-01-22T09:29:27.372Z,4.73
2023-01-22T09:31:54.262Z,5.07
2023-01-22T09:34:21.078Z,5.13
2023-01-22T09:36:48.434Z,4.80
2023-01-22T09:39:16.226Z,5.47
2023-01-22T09:41:56.928Z,5.40
2023-01-22T09:44:39.256Z,5.10
2023-01-22T09:47:18.298Z,5.23
2023-01-22T09:50:06.347Z,4.90
2023-01-22T09:52:39.150Z,4.90
2023-01-22T09:55:19.686Z,4.97
2023-01-22T09:57:55.134Z,5.00
2023-01-22T10:00:40.677Z,4.60
2023-01-22T10:03:37.023Z,4.77
2023-01-22T10:06:13.776Z,4.93
2023-01-22T10:08:58.983Z,5.03
2023-01-22T10:11:26.185Z,4.80
2023-01-22T10:14:00.706Z,5.07
2023-01-22T10:16:29.455Z,4.23
2023-01-22T10:19:04.906Z,4.63
2023-01-22T10:21:42.007Z,5.27
2023-01-22T10:24:11.793Z,3.77
2023-01-22T10:26:55.756Z,4.80
2023-01-22T10:29:32.158Z,4.53
2023-01-22T10:32:25.890Z,4.67
2023-01-22T10:35:01.654Z,4.37
2023-01-22T10:37:29.472Z,4.90
2023-01-22T10:40:20.401Z,5.47
2023-01-22T10:43:01.257Z,4.57
2023-01-22T10:45:53.572Z,4.20
2023-01-22T10:48:22.407Z,4.60
2023-01-22T10:51:27.424Z,4.90
2023-01-22T10:53:57.425Z,4.10
2023-01-22T10:56:35.636Z,4.27
2023-01-22T10:59:18.104Z,4.50
2023-01-22T11:02:21.776Z,4.77
2023-01-22T11:04:52.587Z,4.33
2023-01-22T11:07:45.952Z,4.23
2023-01-22T11:10:30.328Z,5.00
2023-01-22T11:13:29.656Z,5.03
2023-01-22T11:16:18.162Z,3.87
2023-01-22T11:19:07.615Z,4.70
2023-01-22T11:21:56.811Z,4.30
2023-01-22T11:24:46.972Z,4.20
2023-01-22T11:27:47.414Z,4.30
2023-01-22T11:30:56.872Z,3.77
2023-01-22T11:33:43.685Z,4.23
2023-01-22T11:36:31.713Z,4.30
2023-01-22T11:39:05.515Z,4.40
2023-01-22T11:41:55.345Z,4.17
2023-01-22T11:45:08.803Z,4.33
2023-01-22T11:47:54.182Z,4.00
2023-01-22T11:50:30.925Z,3.90
2023-01-22T11:53:44.645Z,4.40
2023-01-22T11:56:29.241Z,4.37
2023-01-22T11:59:17.515Z,4.73
2023-01-22T12:02:18.630Z,4.60
2023-01-22T12:05:30.743Z,4.10
2023-01-22T12:08:04.413Z,4.30
2023-01-22T12:10:45.168Z,4.47
2023-01-22T12:13:56.963Z,4.57
2023-01-22T12:16:51.094Z,4.73
2023-01-22T12:19:58.847Z,4.60
2023-01-22T12:22:42.427Z,4.33
2023-01-22T12:25:41.731Z,4.00
2023-01-22T12:28:34.526Z,4.70
2023-01-22T12:31:43.878Z,4.47
2023-01-22T12:34:22.796Z,4.73
2023-01-22T12:36:52.201Z,5.20
2023-01-22T12:39:40.992Z,4.83
2023-01-22T12:42:40.789Z,4.07
2023-01-22T12:45:42.113Z,4.50
2023-01-22T12:48:40.922Z,4.40
2023-01-22T12:51:44.763Z,4.03
2023-01-22T12:54:32.730Z,3.67
2023-01-22T12:57:14.229Z,4.07
2023-01-22T12:59:47.425Z,3.97
2023-01-22T13:02:26.572Z,4.73
2023-01-22T13:04:55.094Z,4.40
2023-01-22T13:07:29.237Z,4.20
2023-01-22T13:10:06.259Z,5.27
2023-01-22T13:12:49.371Z,4.73
2023-01-22T13:15:38.607Z,4.20
2023-01-22T13:18:28.252Z,4.17
2023-01-22T13:21:17.803Z,4.27
2023-01-22T13:23:48.771Z,4.47
2023-01-22T13:26:26.807Z,4.70
2023-01-22T13:29:19.378Z,5.20
2023-01-22T13:31:54.375Z,5.17
2023-01-22T13:34:21.556Z,5.40
2023-01-22T13:36:49.826Z,5.30
2023-01-22T13:39:29.787Z,5.17
2023-01-22T13:42:05.294Z,5.53
2023-01-22T13:44:40.499Z,5.50
2023-01-22T13:47:07.990Z,5.67
2023-01-22T13:49:46.416Z,5.97
2023-01-22T13:52:18.988Z,5.53
2023-01-22T13:55:03.175Z,5.27
2023-01-22T13:57:29.891Z,5.90
2023-01-22T14:00:00.407Z,5.33
2023-01-22T14:02:35.161Z,5.43
2023-01-22T14:05:02.970Z,5.63
2023-01-22T14:07:37.900Z,5.47
2023-01-22T14:10:15.821Z,5.73
2023-01-22T14:12:42.671Z,6.00
2023-01-22T14:15:21.393Z,5.17
2023-01-22T14:17:50.421Z,5.13
2023-01-22T14:20:18.331Z,5.70
2023-01-22T14:22:47.939Z,5.43
2023-01-22T14:25:14.709Z,6.10
2023-01-22T14:27:47.025Z,5.50
2023-01-22T14:30:18.238Z,5.60
2023-01-22T14:32:46.101Z,6.60
2023-01-22T14:35:22.776Z,5.73
2023-01-22T14:37:50.749Z,6.93
2023-01-22T14:40:21.801Z,6.57
2023-01-22T14:42:49.762Z,7.03
2023-01-22T14:45:19.305Z,6.43
2023-01-22T14:47:51.665Z,7.37
2023-01-22T14:50:19.829Z,7.00
2023-01-22T14:52:48.871Z,6.80
2023-01-22T14:55:15.851Z,6.00
2023-01-22T14:57:42.646Z,6.37
2023-01-22T15:00:12.788Z,6.27
2023-01-22T15:02:41.503Z,7.00
2023-01-22T15:05:10.296Z,7.40
2023-01-22T15:07:40.979Z,7.20
2023-01-22T15:10:08.966Z,6.73
2023-01-22T15:12:35.734Z,6.40
2023-01-22T15:15:02.571Z,6.20
2023-01-22T15:17:29.524Z,6.13
2023-01-22T15:19:57.146Z,7.13
2023-01-22T15:22:24.036Z,6.30
2023-01-22T15:24:50.919Z,6.93
2023-01-22T15:27:18.675Z,7.23
2023-01-22T15:29:46.584Z,6.73
2023-01-22T15:32:14.083Z,7.40
2023-01-22T15:34:46.702Z,6.03
2023-01-22T15:37:14.923Z,6.63
2023-01-22T15:39:42.200Z,7.10
2023-01-22T15:42:09.257Z,8.00
2023-01-22T15:44:37.454Z,8.07
2023-01-22T15:47:04.838Z,9.07
2023-01-22T15:49:31.872Z,10.30
2023-01-22T15:52:03.562Z,8.50
2023-01-22T15:54:41.468Z,8.53
2023-01-22T15:57:08.143Z,8.70
2023-01-22T15:59:37.874Z,7.97
2023-01-22T16:02:13.014Z,7.93
2023-01-22T16:04:55.116Z,7.13
2023-01-22T16:07:29.969Z,6.73
2023-01-22T16:09:56.753Z,6.63
2023-01-22T16:12:24.207Z,8.20
2023-01-22T16:14:51.042Z,7.60
2023-01-22T16:17:17.882Z,8.37
2023-01-22T16:19:44.665Z,7.77
2023-01-22T16:22:11.374Z,8.20
2023-01-22T16:24:53.485Z,7.20
2023-01-22T16:27:20.408Z,8.17
2023-01-22T16:29:47.273Z,9.17
2023-01-22T16:32:14.044Z,7.73
2023-01-22T16:34:47.912Z,7.73
2023-01-22T16:37:14.671Z,9.43
2023-01-22T16:39:41.590Z,9.33
2023-01-22T16:42:08.699Z,8.10
2023-01-22T16:44:35.506Z,9.17
2023-01-22T16:47:02.311Z,9.10
2023-01-22T16:49:32.102Z,9.90
2023-01-22T16:52:20.696Z,10.70
2023-01-22T16:54:49.348Z,10.07
2023-01-22T16:57:16.208Z,8.60
2023-01-22T16:59:43.694Z,8.40
2023-01-22T17:02:16.463Z,8.03
2023-01-22T17:04:43.406Z,7.50
2023-01-22T17:07:27.288Z,8.07
2023-01-22T17:09:59.318Z,8.10
2023-01-22T17:12:26.455Z,9.47
2023-01-22T17:14:53.320Z,9.53
2023-01-22T17:17:21.122Z,8.57
2023-01-22T17:19:47.938Z,8.90
2023-01-22T17:22:14.687Z,8.13
2023-01-22T17:24:41.814Z,7.03
2023-01-22T17:27:08.858Z,6.80
2023-01-22T17:29:36.226Z,7.60
2023-01-22T17:32:04.128Z,7.23
2023-01-22T17:34:31.172Z,6.83
2023-01-22T17:36:57.972Z,6.97
2023-01-22T17:39:25.318Z,7.50
2023-01-22T17:41:52.116Z,7.50
2023-01-22T17:44:18.878Z,7.27
2023-01-22T17:46:45.668Z,7.47
2023-01-22T17:49:12.384Z,7.73
2023-01-22T17:51:41.579Z,7.37
2023-01-22T17:54:09.364Z,8.20
2023-01-22T17:56:45.434Z,8.60
2023-01-22T17:59:12.888Z,7.73
2023-01-22T18:01:40.971Z,7.80
2023-01-22T18:04:10.991Z,8.07
2023-01-22T18:06:40.322Z,7.70
2023-01-22T18:09:09.335Z,7.20
2023-01-22T18:11:38.616Z,8.03
2023-01-22T18:14:15.751Z,7.43
2023-01-22T18:16:45.569Z,6.80
2023-01-22T18:19:12.497Z,8.20
2023-01-22T18:21:39.594Z,8.57
2023-01-22T18:24:08.981Z,7.87
2023-01-22T18:26:36.671Z,8.60
2023-01-22T18:29:04.841Z,8.33
2023-01-22T18:31:32.059Z,7.63
2023-01-22T18:34:04.725Z,9.00
2023-01-22T18:36:39.028Z,9.13
2023-01-22T18:39:11.502Z,9.07
2023-01-22T18:41:40.700Z,8.83
2023-01-22T18:44:09.877Z,9.20
2023-01-22T18:46:39.009Z,8.17
2023-01-22T18:49:12.882Z,9.07
2023-01-22T18:51:41.867Z,14.93
2023-01-22T18:54:09.302Z,13.87
2023-01-22T18:56:37.427Z,12.67
2023-01-22T18:59:05.720Z,9.40
2023-01-22T19:01:36.965Z,8.57
2023-01-22T19:04:10.095Z,7.93
2023-01-22T19:06:38.848Z,7.07
2023-01-22T19:09:14.115Z,7.70
2023-01-22T19:11:46.917Z,6.93
2023-01-22T19:14:20.287Z,6.60
2023-01-22T19:16:53.631Z,7.57
2023-01-22T19:19:23.443Z,7.03
2023-01-22T19:21:55.813Z,8.03
2023-01-22T19:24:26.739Z,7.67
2023-01-22T19:27:01.723Z,7.03
2023-01-22T19:29:28.924Z,7.77
2023-01-22T19:31:57.107Z,7.33
2023-01-22T19:34:29.544Z,7.40
2023-01-22T19:37:02.300Z,7.47
2023-01-22T19:39:30.039Z,7.47
2023-01-22T19:41:58.015Z,7.87
2023-01-22T19:44:24.873Z,7.37
2023-01-22T19:46:51.738Z,7.53
2023-01-22T19:49:18.595Z,8.03
2023-01-22T19:51:45.437Z,8.70
2023-01-22T19:54:13.916Z,9.10
2023-01-22T19:56:45.491Z,8.80
2023-01-22T19:59:20.010Z,9.50
2023-01-22T20:01:48.595Z,10.90
2023-01-22T20:04:30.684Z,11.50
2023-01-22T20:07:01.835Z,9.73
2023-01-22T20:09:30.185Z,9.00
2023-01-22T20:11:58.116Z,7.30
2023-01-22T20:14:45.053Z,7.20
2023-01-22T20:17:16.614Z,7.50
2023-01-22T20:19:43.542Z,7.07
2023-01-22T20:22:10.846Z,7.40
2023-01-22T20:24:40.171Z,7.80
2023-01-22T20:27:08.692Z,7.40
2023-01-22T20:29:38.378Z,7.43
2023-01-22T20:32:06.174Z,7.97
2023-01-22T20:34:33.648Z,7.67
2023-01-22T20:37:08.678Z,7.77
2023-01-22T20:39:35.369Z,7.73
2023-01-22T20:42:02.118Z,7.67
2023-01-22T20:44:32.082Z,7.87
2023-01-22T20:46:58.785Z,8.30
2023-01-22T20:49:25.574Z,7.43
2023-01-22T20:51:53.180Z,8.10
2023-01-22T20:54:20.101Z,7.23
2023-01-22T20:57:05.845Z,7.73
2023-01-22T20:59:32.613Z,7.90
2023-01-22T21:01:59.497Z,8.17
2023-01-22T21:04:26.734Z,7.97
2023-01-22T21:06:53.541Z,7.53
2023-01-22T21:09:20.390Z,7.97
2023-01-22T21:11:47.116Z,7.43
2023-01-22T21:14:20.310Z,8.90
2023-01-22T21:16:47.269Z,8.17
2023-01-22T21:19:21.671Z,7.43
2023-01-22T21:21:48.509Z,6.63
2023-01-22T21:24:21.434Z,7.37
2023-01-22T21:26:57.312Z,7.97
2023-01-22T21:29:31.373Z,6.60
2023-01-22T21:32:15.244Z,7.13
2023-01-22T21:34:42.655Z,6.83
2023-01-22T21:37:09.399Z,6.63
2023-01-22T21:39:38.503Z,7.07
2023-01-22T21:42:23.769Z,7.30
2023-01-22T21:45:09.165Z,7.37
2023-01-22T21:47:35.938Z,7.63
2023-01-22T21:50:02.641Z,6.53
2023-01-22T21:52:29.372Z,6.83
2023-01-22T21:54:56.810Z,6.87
2023-01-22T21:57:23.566Z,7.07
2023-01-22T21:59:50.400Z,7.60
2023-01-22T22:02:19.841Z,7.97
2023-01-22T22:04:47.677Z,6.83
2023-01-22T22:07:14.604Z,7.47
2023-01-22T22:09:41.399Z,7.63
2023-01-22T22:12:08.179Z,8.27
2023-01-22T22:14:34.941Z,8.47
2023-01-22T22:17:01.764Z,8.50
2023-01-22T22:19:29.150Z,7.13
2023-01-22T22:21:55.992Z,6.43
2023-01-22T22:24:25.264Z,7.50
2023-01-22T22:26:52.067Z,6.60
2023-01-22T22:29:18.866Z,7.07
2023-01-22T22:31:45.642Z,6.83
2023-01-22T22:34:12.490Z,6.23
2023-01-22T22:36:39.580Z,6.83
2023-01-22T22:39:06.670Z,6.97
2023-01-22T22:41:39.249Z,6.93
2023-01-22T22:44:06.926Z,7.20
2023-01-22T22:46:38.738Z,7.23
2023-01-22T22:49:06.605Z,7.23
2023-01-22T22:51:40.051Z,7.47
2023-01-22T22:54:16.573Z,6.97
2023-01-22T22:56:46.053Z,6.97
2023-01-22T22:59:14.338Z,7.10
2023-01-22T23:01:41.193Z,6.70
2023-01-22T23:04:08.553Z,6.90
2023-01-22T23:06:44.973Z,7.50
2023-01-22T23:09:17.388Z,7.50
2023-01-22T23:11:44.204Z,6.43
2023-01-22T23:14:11.832Z,6.23
2023-01-22T23:16:42.552Z,6.50
2023-01-22T23:19:18.356Z,6.80
2023-01-22T23:21:46.390Z,6.10
2023-01-22T23:24:15.039Z,7.27
2023-01-22T23:26:43.999Z,6.63
2023-01-22T23:29:17.684Z,6.10
2023-01-22T23:32:09.570Z,6.93
2023-01-22T23:34:37.551Z,6.60
2023-01-22T23:37:04.414Z,7.07
2023-01-22T23:39:31.182Z,6.73
2023-01-22T23:41:57.864Z,6.63
2023-01-22T23:44:24.938Z,7.30
2023-01-22T23:46:51.653Z,6.87
2023-01-22T23:49:18.608Z,7.70
2023-01-22T23:51:45.787Z,7.23
2023-01-22T23:54:12.862Z,7.00
2023-01-22T23:56:39.667Z,7.17
2023-01-22T23:59:06.556Z,7.10
